createdAt,value
2018-06-21T00:00:55.607Z,20.80
2018-06-21T00:02:58.720Z,20.80
2018-06-21T00:05:01.836Z,20.70
2018-06-21T00:07:04.964Z,20.70
2018-06-21T00:09:08.952Z,20.60
2018-06-21T00:11:12.056Z,20.60
2018-06-21T00:13:15.173Z,20.60
2018-06-21T00:15:18.292Z,20.60
2018-06-21T00:17:21.479Z,20.60
2018-06-21T00:19:24.621Z,20.50
2018-06-21T00:21:27.748Z,20.50
2018-06-21T00:23:30.871Z,20.50
2018-06-21T00:25:34.038Z,20.50
2018-06-21T00:27:37.139Z,20.40
2018-06-21T00:29:40.296Z,20.40
2018-06-21T00:31:43.429Z,20.40
2018-06-21T00:33:47.316Z,20.30
2018-06-21T00:35:50.453Z,20.30
2018-06-21T00:37:53.592Z,20.30
2018-06-21T00:39:56.728Z,20.30
2018-06-21T00:41:59.851Z,20.20
2018-06-21T00:44:02.956Z,20.20
2018-06-21T00:46:06.076Z,20.20
2018-06-21T00:48:09.187Z,20.20
2018-06-21T00:50:12.315Z,20.10
2018-06-21T00:52:15.432Z,20.10
2018-06-21T00:54:18.545Z,20.10
2018-06-21T00:56:21.660Z,20.10
2018-06-21T00:58:24.743Z,20.10
2018-06-21T01:00:27.827Z,20.10
2018-06-21T01:02:30.912Z,20.00
2018-06-21T01:04:33.995Z,20.00
2018-06-21T01:06:37.083Z,20.00
2018-06-21T01:08:40.183Z,20.00
2018-06-21T01:10:43.448Z,20.00
2018-06-21T01:12:46.543Z,19.90
2018-06-21T01:14:50.940Z,19.90
2018-06-21T01:16:54.255Z,19.90
2018-06-21T01:18:57.336Z,19.90
2018-06-21T01:21:00.431Z,19.90
2018-06-21T01:23:03.509Z,19.80
2018-06-21T01:25:06.588Z,19.80
2018-06-21T01:27:10.077Z,19.80
2018-06-21T01:29:13.165Z,19.80
2018-06-21T01:31:16.283Z,19.70
2018-06-21T01:33:19.378Z,19.70
2018-06-21T01:35:22.458Z,19.70
2018-06-21T01:39:28.416Z,19.60
2018-06-21T01:41:31.513Z,19.60
2018-06-21T01:43:34.608Z,19.60
2018-06-21T01:45:37.712Z,19.60
2018-06-21T01:47:40.816Z,19.60
2018-06-21T01:49:44.376Z,19.60
2018-06-21T01:51:47.522Z,19.50
2018-06-21T01:53:51.700Z,19.50
2018-06-21T01:55:54.819Z,19.50
2018-06-21T01:57:57.919Z,19.50
2018-06-21T02:00:01.015Z,19.50
2018-06-21T02:02:04.299Z,19.40
2018-06-21T02:04:07.379Z,19.40
2018-06-21T02:06:10.475Z,19.40
2018-06-21T02:08:13.575Z,19.30
2018-06-21T02:10:16.660Z,19.30
2018-06-21T02:12:19.770Z,19.30
2018-06-21T02:14:22.849Z,19.30
2018-06-21T02:16:25.921Z,19.30
2018-06-21T02:18:30.065Z,19.30
2018-06-21T02:20:33.143Z,19.30
2018-06-21T02:22:36.230Z,19.20
2018-06-21T02:24:39.306Z,19.20
2018-06-21T02:26:42.384Z,19.20
2018-06-21T02:28:45.467Z,19.20
2018-06-21T02:30:48.572Z,19.20
2018-06-21T02:32:51.702Z,19.20
2018-06-21T02:34:54.804Z,19.20
2018-06-21T02:36:58.196Z,19.20
2018-06-21T02:39:01.285Z,19.20
2018-06-21T02:41:04.375Z,19.20
2018-06-21T02:43:07.502Z,19.10
2018-06-21T02:45:10.580Z,19.10
2018-06-21T02:47:13.669Z,19.10
2018-06-21T02:49:16.754Z,19.10
2018-06-21T02:51:19.820Z,19.00
2018-06-21T02:53:23.629Z,19.00
2018-06-21T02:55:26.724Z,19.00
2018-06-21T02:57:29.834Z,19.00
2018-06-21T02:59:32.912Z,19.00
2018-06-21T03:01:36.126Z,19.00
2018-06-21T03:03:39.255Z,19.00
2018-06-21T03:05:42.384Z,19.00
2018-06-21T03:07:45.500Z,19.00
2018-06-21T03:09:48.588Z,18.90
2018-06-21T03:11:51.687Z,18.90
2018-06-21T03:13:54.792Z,18.90
2018-06-21T03:15:57.881Z,18.90
2018-06-21T03:18:00.964Z,19.00
2018-06-21T03:20:04.070Z,19.00
2018-06-21T03:22:07.291Z,19.00
2018-06-21T03:24:10.332Z,19.00
2018-06-21T03:26:13.416Z,19.00
2018-06-21T03:28:16.522Z,19.00
2018-06-21T03:30:19.628Z,19.00
2018-06-21T03:32:22.700Z,19.10
2018-06-21T03:34:26.223Z,19.10
2018-06-21T03:36:30.124Z,19.20
2018-06-21T03:38:33.208Z,19.20
2018-06-21T03:40:36.316Z,19.20
2018-06-21T03:42:39.383Z,19.30
2018-06-21T03:44:42.485Z,19.30
2018-06-21T03:46:45.581Z,19.30
2018-06-21T03:48:48.676Z,19.40
2018-06-21T03:50:51.756Z,19.40
2018-06-21T03:52:54.836Z,19.50
2018-06-21T03:54:57.940Z,19.50
2018-06-21T03:57:01.053Z,19.50
2018-06-21T03:59:04.206Z,19.60
2018-06-21T04:01:07.328Z,19.60
2018-06-21T04:03:10.676Z,19.60
2018-06-21T04:05:13.731Z,19.70
2018-06-21T04:07:16.820Z,19.70
2018-06-21T04:09:19.912Z,19.70
2018-06-21T04:11:23.044Z,19.80
2018-06-21T04:13:26.123Z,19.90
2018-06-21T04:15:29.220Z,19.90
2018-06-21T04:17:32.403Z,20.00
2018-06-21T04:19:35.411Z,20.00
2018-06-21T04:21:38.515Z,20.10
2018-06-21T04:23:42.418Z,20.20
2018-06-21T04:27:48.393Z,20.30
2018-06-21T04:29:51.488Z,20.30
2018-06-21T04:31:54.624Z,20.30
2018-06-21T04:33:57.716Z,20.30
2018-06-21T04:36:00.835Z,20.30
2018-06-21T04:38:03.940Z,20.30
2018-06-21T04:40:07.303Z,20.40
2018-06-21T04:42:10.468Z,20.40
2018-06-21T04:44:13.575Z,20.40
2018-06-21T04:46:16.665Z,20.50
2018-06-21T04:48:19.837Z,20.50
2018-06-21T04:50:22.940Z,20.50
2018-06-21T04:52:26.224Z,20.50
2018-06-21T04:54:29.320Z,20.50
2018-06-21T04:56:32.447Z,20.50
2018-06-21T04:58:35.549Z,20.50
2018-06-21T05:00:38.667Z,20.60
2018-06-21T05:02:41.785Z,20.60
2018-06-21T05:04:44.898Z,20.60
2018-06-21T05:06:48.530Z,20.60
2018-06-21T05:08:51.634Z,20.60
2018-06-21T05:10:54.749Z,20.60
2018-06-21T05:12:58.468Z,20.60
2018-06-21T05:15:01.968Z,20.60
2018-06-21T05:17:05.114Z,20.50
2018-06-21T05:19:08.280Z,20.50
2018-06-21T05:21:11.388Z,20.40
2018-06-21T05:23:14.496Z,20.40
2018-06-21T05:25:17.592Z,20.40
2018-06-21T05:27:20.780Z,20.40
2018-06-21T05:29:23.998Z,20.30
2018-06-21T05:31:27.084Z,20.20
2018-06-21T05:33:30.270Z,20.20
2018-06-21T05:35:33.548Z,20.10
2018-06-21T05:37:36.645Z,20.10
2018-06-21T05:39:39.748Z,20.00
2018-06-21T05:41:42.851Z,20.10
2018-06-21T05:43:46.047Z,20.10
2018-06-21T05:45:49.130Z,20.10
2018-06-21T05:47:52.219Z,19.90
2018-06-21T05:49:55.439Z,19.90
2018-06-21T05:51:58.561Z,19.90
2018-06-21T05:54:01.661Z,19.80
2018-06-21T05:56:05.288Z,19.70
2018-06-21T05:58:08.410Z,19.70
2018-06-21T06:00:11.655Z,19.90
2018-06-21T06:02:14.824Z,19.90
2018-06-21T06:06:21.044Z,19.80
2018-06-21T06:08:24.164Z,19.80
2018-06-21T06:10:27.260Z,19.80
2018-06-21T06:12:31.524Z,19.70
2018-06-21T06:14:34.620Z,19.60
2018-06-21T06:16:38.834Z,19.40
2018-06-21T06:18:41.956Z,19.40
2018-06-21T06:20:45.056Z,19.30
2018-06-21T06:22:48.430Z,19.20
2018-06-21T06:24:51.544Z,19.00
2018-06-21T06:26:55.102Z,18.90
2018-06-21T06:28:58.281Z,18.80
2018-06-21T06:31:01.388Z,18.60
2018-06-21T06:33:04.486Z,18.50
2018-06-21T06:35:07.712Z,18.40
2018-06-21T06:37:10.997Z,18.30
2018-06-21T06:39:18.312Z,18.30
2018-06-21T06:41:21.445Z,18.30
2018-06-21T06:43:24.515Z,18.30
2018-06-21T06:45:27.628Z,18.30
2018-06-21T06:47:32.904Z,18.30
2018-06-21T06:49:35.995Z,18.40
2018-06-21T06:51:39.548Z,18.60
2018-06-21T06:53:42.652Z,18.80
2018-06-21T06:55:45.752Z,18.80
2018-06-21T06:57:48.873Z,18.90
2018-06-21T06:59:52.104Z,18.90
2018-06-21T07:01:55.220Z,19.00
2018-06-21T07:03:58.328Z,19.00
2018-06-21T07:06:01.465Z,19.00
2018-06-21T07:08:04.639Z,19.00
2018-06-21T07:10:07.851Z,19.10
2018-06-21T07:12:11.086Z,19.10
2018-06-21T07:14:14.271Z,19.10
2018-06-21T07:16:17.300Z,19.10
2018-06-21T07:18:20.408Z,19.10
2018-06-21T07:20:23.718Z,19.00
2018-06-21T07:22:26.896Z,18.90
2018-06-21T07:24:30.021Z,18.80
2018-06-21T07:26:33.219Z,18.60
2018-06-21T07:28:36.357Z,18.40
2018-06-21T07:30:39.504Z,18.40
2018-06-21T07:32:42.583Z,18.60
2018-06-21T07:34:45.743Z,18.70
2018-06-21T07:36:49.621Z,19.00
2018-06-21T07:38:52.774Z,19.20
2018-06-21T07:40:55.833Z,19.40
2018-06-21T07:42:59.124Z,19.70
2018-06-21T07:45:02.288Z,20.10
2018-06-21T07:47:05.526Z,20.20
2018-06-21T07:49:08.623Z,20.10
2018-06-21T07:51:11.768Z,20.10
2018-06-21T07:53:14.863Z,20.10
2018-06-21T07:55:18.128Z,20.20
2018-06-21T07:57:21.256Z,20.40
2018-06-21T07:59:24.379Z,20.50
2018-06-21T08:01:27.570Z,20.60
2018-06-21T08:03:31.205Z,20.60
2018-06-21T08:05:34.324Z,20.70
2018-06-21T08:09:40.323Z,21.20
2018-06-21T08:11:43.444Z,21.60
2018-06-21T08:13:46.579Z,21.70
2018-06-21T08:15:49.684Z,21.80
2018-06-21T08:17:52.880Z,22.00
2018-06-21T08:19:56.821Z,22.30
2018-06-21T08:21:59.925Z,22.40
2018-06-21T08:24:03.031Z,22.70
2018-06-21T08:26:06.141Z,22.90
2018-06-21T08:28:09.271Z,23.10
2018-06-21T08:30:12.365Z,23.20
2018-06-21T08:32:15.516Z,22.90
2018-06-21T08:34:18.588Z,22.40
2018-06-21T08:36:21.713Z,22.30
2018-06-21T08:38:24.839Z,22.30
2018-06-21T08:40:27.964Z,21.90
2018-06-21T08:42:31.069Z,21.90
2018-06-21T08:44:34.195Z,22.10
2018-06-21T08:46:37.360Z,22.30
2018-06-21T08:48:40.462Z,22.70
2018-06-21T08:50:43.600Z,22.70
2018-06-21T08:52:46.700Z,22.40
2018-06-21T08:54:49.791Z,22.20
2018-06-21T08:56:52.909Z,22.00
2018-06-21T08:58:56.004Z,22.50
2018-06-21T09:00:59.100Z,22.90
2018-06-21T09:03:02.196Z,23.40
2018-06-21T09:05:05.536Z,23.80
2018-06-21T09:09:11.471Z,24.00
2018-06-21T09:11:14.565Z,23.90
2018-06-21T09:15:20.535Z,24.30
2018-06-21T09:17:23.643Z,24.30
2018-06-21T09:19:26.899Z,24.30
2018-06-21T09:21:30.007Z,24.10
2018-06-21T09:23:33.107Z,23.80
2018-06-21T09:25:36.209Z,23.40
2018-06-21T09:27:39.303Z,22.90
2018-06-21T09:29:42.398Z,22.40
2018-06-21T09:31:45.501Z,21.70
2018-06-21T09:33:48.602Z,21.00
2018-06-21T09:35:51.704Z,20.30
2018-06-21T09:38:00.300Z,20.00
2018-06-21T09:40:08.743Z,19.90
2018-06-21T09:44:25.843Z,19.80
2018-06-21T09:48:37.600Z,19.80
2018-06-21T09:50:40.692Z,19.80
2018-06-21T09:52:43.807Z,19.90
2018-06-21T09:54:46.915Z,20.00
2018-06-21T09:56:50.826Z,20.10
2018-06-21T09:58:53.911Z,20.30
2018-06-21T10:01:02.556Z,20.30
2018-06-21T10:03:05.637Z,20.50
2018-06-21T10:05:08.723Z,21.00
2018-06-21T10:07:11.864Z,21.10
2018-06-21T10:09:14.956Z,21.20
2018-06-21T10:11:18.060Z,21.40
2018-06-21T10:13:21.236Z,21.30
2018-06-21T10:15:24.345Z,21.20
2018-06-21T10:17:27.428Z,21.50
2018-06-21T10:19:30.533Z,21.60
2018-06-21T10:21:33.600Z,21.80
2018-06-21T10:23:36.716Z,22.20
2018-06-21T10:25:39.864Z,22.40
2018-06-21T10:27:42.956Z,22.50
2018-06-21T10:29:46.040Z,22.40
2018-06-21T10:31:49.153Z,22.20
2018-06-21T10:33:52.280Z,21.90
2018-06-21T10:35:55.377Z,21.60
2018-06-21T10:37:58.490Z,21.60
2018-06-21T10:40:01.657Z,21.70
2018-06-21T10:42:04.801Z,21.60
2018-06-21T10:44:07.884Z,21.40
2018-06-21T10:46:10.988Z,21.30
2018-06-21T10:48:14.095Z,21.40
2018-06-21T10:50:17.327Z,21.50
2018-06-21T10:52:20.500Z,21.40
2018-06-21T10:54:23.605Z,21.30
2018-06-21T10:56:26.735Z,21.10
2018-06-21T10:58:29.850Z,21.00
2018-06-21T11:00:33.223Z,20.90
2018-06-21T11:02:36.388Z,20.70
2018-06-21T11:04:39.487Z,20.80
2018-06-21T11:06:42.601Z,20.90
2018-06-21T11:08:45.781Z,21.20
2018-06-21T11:10:48.917Z,21.70
2018-06-21T11:12:52.068Z,22.00
2018-06-21T11:14:55.244Z,21.90
2018-06-21T11:16:58.342Z,22.20
2018-06-21T11:19:01.486Z,22.40
2018-06-21T11:21:04.624Z,22.50
2018-06-21T11:23:07.735Z,22.80
2018-06-21T11:25:10.839Z,22.80
2018-06-21T11:27:13.952Z,22.40
2018-06-21T11:29:17.061Z,21.90
2018-06-21T11:31:20.180Z,21.00
2018-06-21T11:33:23.623Z,20.80
2018-06-21T11:35:26.812Z,20.50
2018-06-21T11:37:30.117Z,20.50
2018-06-21T11:39:33.223Z,20.70
2018-06-21T11:41:36.337Z,20.90
2018-06-21T11:43:39.436Z,20.90
2018-06-21T11:45:42.565Z,21.20
2018-06-21T11:47:45.676Z,21.30
2018-06-21T11:51:51.792Z,21.80
2018-06-21T11:53:54.876Z,21.80
2018-06-21T11:55:58.185Z,22.20
2018-06-21T11:58:01.282Z,22.50
2018-06-21T12:00:04.456Z,22.70
2018-06-21T12:02:07.560Z,22.60
2018-06-21T12:04:10.678Z,22.20
2018-06-21T12:06:14.300Z,21.70
2018-06-21T12:08:17.399Z,21.10
2018-06-21T12:10:20.479Z,20.90
2018-06-21T12:12:23.576Z,20.70
2018-06-21T12:14:27.116Z,20.50
2018-06-21T12:16:30.220Z,20.40
2018-06-21T12:18:33.308Z,20.30
2018-06-21T12:20:36.414Z,20.60
2018-06-21T12:22:39.494Z,20.80
2018-06-21T12:24:42.586Z,21.00
2018-06-21T12:26:46.205Z,21.30
2018-06-21T12:28:49.306Z,21.70
2018-06-21T12:30:52.418Z,21.90
2018-06-21T12:32:55.522Z,21.70
2018-06-21T12:34:58.777Z,21.40
2018-06-21T12:37:03.435Z,21.30
2018-06-21T12:39:07.655Z,21.30
2018-06-21T12:41:10.816Z,21.10
2018-06-21T12:43:13.895Z,21.00
2018-06-21T12:45:17.012Z,21.10
2018-06-21T12:47:20.125Z,21.10
2018-06-21T12:49:23.396Z,21.10
2018-06-21T12:51:27.089Z,21.20
2018-06-21T12:53:30.180Z,21.40
2018-06-21T12:55:34.424Z,21.40
2018-06-21T12:57:37.527Z,21.40
2018-06-21T12:59:40.621Z,21.30
2018-06-21T13:01:43.756Z,21.10
2018-06-21T13:03:46.874Z,21.30
2018-06-21T13:05:49.993Z,21.40
2018-06-21T13:10:07.489Z,21.30
2018-06-21T13:12:25.883Z,21.20
2018-06-21T13:14:29.044Z,21.10
2018-06-21T13:16:32.136Z,21.20
2018-06-21T13:18:35.203Z,21.10
2018-06-21T13:20:38.376Z,21.10
2018-06-21T13:22:41.471Z,21.20
2018-06-21T13:24:45.021Z,21.20
2018-06-21T13:26:48.128Z,21.20
2018-06-21T13:28:51.240Z,21.30
2018-06-21T13:30:54.348Z,21.40
2018-06-21T13:32:57.424Z,21.60
2018-06-21T13:35:00.644Z,21.60
2018-06-21T13:37:03.749Z,21.80
2018-06-21T13:39:07.380Z,21.90
2018-06-21T13:41:10.773Z,21.90
2018-06-21T13:43:13.861Z,21.60
2018-06-21T13:45:16.957Z,21.40
2018-06-21T13:47:20.072Z,21.60
2018-06-21T13:49:23.187Z,21.30
2018-06-21T13:51:26.286Z,21.30
2018-06-21T13:53:29.384Z,21.00
2018-06-21T13:55:32.487Z,21.20
2018-06-21T13:57:35.579Z,21.10
2018-06-21T13:59:38.691Z,21.30
2018-06-21T14:01:41.791Z,21.20
2018-06-21T14:03:44.872Z,21.10
2018-06-21T14:05:47.960Z,21.10
2018-06-21T14:07:51.134Z,21.00
2018-06-21T14:09:54.104Z,21.00
2018-06-21T14:11:57.227Z,20.90
2018-06-21T14:14:00.311Z,21.00
2018-06-21T14:16:03.422Z,21.00
2018-06-21T14:20:09.412Z,20.80
2018-06-21T14:22:12.503Z,20.90
2018-06-21T14:24:15.803Z,20.90
2018-06-21T14:26:18.903Z,20.90
2018-06-21T14:28:21.976Z,20.80
2018-06-21T14:30:25.681Z,21.00
2018-06-21T14:32:28.871Z,21.20
2018-06-21T14:34:32.008Z,21.60
2018-06-21T14:36:35.122Z,21.60
2018-06-21T14:38:38.213Z,21.40
2018-06-21T14:40:41.506Z,21.40
2018-06-21T14:42:44.601Z,21.40
2018-06-21T14:44:47.672Z,21.30
2018-06-21T14:46:50.782Z,21.30
2018-06-21T14:48:53.909Z,21.30
2018-06-21T14:50:56.991Z,21.30
2018-06-21T14:53:00.108Z,21.00
2018-06-21T14:55:03.214Z,20.90
2018-06-21T14:57:06.479Z,21.00
2018-06-21T14:59:09.729Z,20.90
2018-06-21T15:01:12.832Z,20.70
2018-06-21T15:03:15.972Z,20.60
2018-06-21T15:05:19.138Z,20.50
2018-06-21T15:09:56.856Z,20.70
2018-06-21T15:11:59.970Z,20.50
2018-06-21T15:14:03.080Z,20.40
2018-06-21T15:16:07.045Z,20.40
2018-06-21T15:18:10.148Z,20.30
2018-06-21T15:20:13.232Z,20.10
2018-06-21T15:22:16.529Z,20.30
2018-06-21T15:24:19.626Z,20.50
2018-06-21T15:26:22.724Z,20.40
2018-06-21T15:28:25.847Z,20.30
2018-06-21T15:30:28.946Z,20.20
2018-06-21T15:32:32.046Z,20.00
2018-06-21T15:34:35.222Z,20.00
2018-06-21T15:36:38.233Z,19.90
2018-06-21T15:38:41.343Z,19.70
2018-06-21T15:40:44.424Z,19.50
2018-06-21T15:42:47.517Z,19.40
2018-06-21T15:44:50.642Z,19.50
2018-06-21T15:46:53.725Z,19.50
2018-06-21T15:48:56.880Z,19.50
2018-06-21T15:50:59.987Z,19.40
2018-06-21T15:53:03.091Z,19.50
2018-06-21T15:55:06.411Z,19.40
2018-06-21T15:57:09.560Z,19.50
2018-06-21T15:59:12.716Z,19.60
2018-06-21T16:01:15.874Z,19.80
2018-06-21T16:03:19.180Z,19.90
2018-06-21T16:05:22.295Z,20.10
2018-06-21T16:07:25.406Z,20.50
2018-06-21T16:09:28.504Z,20.70
2018-06-21T16:11:31.604Z,20.60
2018-06-21T16:13:34.704Z,20.60
2018-06-21T16:15:37.795Z,20.20
2018-06-21T16:17:41.093Z,20.30
2018-06-21T16:19:44.288Z,20.30
2018-06-21T16:21:47.656Z,19.80
2018-06-21T16:23:50.771Z,19.50
2018-06-21T16:25:53.864Z,19.40
2018-06-21T16:27:56.964Z,19.40
2018-06-21T16:30:00.060Z,19.40
2018-06-21T16:32:03.356Z,19.00
2018-06-21T16:34:06.463Z,18.90
2018-06-21T16:36:09.558Z,18.80
2018-06-21T16:38:12.643Z,18.90
2018-06-21T16:40:15.719Z,18.90
2018-06-21T16:42:18.820Z,19.00
2018-06-21T16:44:21.892Z,19.10
2018-06-21T16:46:25.120Z,19.40
2018-06-21T16:48:28.219Z,19.60
2018-06-21T16:50:31.344Z,19.80
2018-06-21T16:52:34.436Z,19.90
2018-06-21T16:54:37.628Z,20.00
2018-06-21T16:56:40.699Z,20.10
2018-06-21T16:58:43.795Z,20.10
2018-06-21T17:00:47.460Z,20.10
2018-06-21T17:02:50.548Z,20.00
2018-06-21T17:04:53.664Z,19.60
2018-06-21T17:06:56.808Z,19.30
2018-06-21T17:08:59.928Z,19.40
2018-06-21T17:11:03.047Z,19.70
2018-06-21T17:13:06.175Z,19.80
2018-06-21T17:17:12.563Z,20.20
2018-06-21T17:19:15.659Z,20.30
2018-06-21T17:21:18.818Z,20.30
2018-06-21T17:23:21.955Z,20.30
2018-06-21T17:25:25.064Z,20.50
2018-06-21T17:27:28.208Z,20.50
2018-06-21T17:29:31.403Z,20.40
2018-06-21T17:31:34.536Z,20.50
2018-06-21T17:33:37.644Z,20.30
2018-06-21T17:35:40.742Z,19.90
2018-06-21T17:37:43.888Z,19.70
2018-06-21T17:39:46.988Z,19.50
2018-06-21T17:41:50.090Z,19.30
2018-06-21T17:43:53.194Z,19.30
2018-06-21T17:45:56.300Z,19.00
2018-06-21T17:47:59.448Z,18.80
2018-06-21T17:50:02.572Z,18.60
2018-06-21T17:52:05.713Z,18.40
2018-06-21T17:54:08.821Z,18.10
2018-06-21T17:56:11.952Z,18.00
2018-06-21T17:58:15.108Z,17.90
2018-06-21T18:00:18.233Z,18.00
2018-06-21T18:02:21.364Z,18.10
2018-06-21T18:04:24.476Z,18.00
2018-06-21T18:06:27.577Z,18.50
2018-06-21T18:08:30.704Z,18.50
2018-06-21T18:10:33.808Z,21.50
2018-06-21T18:12:37.111Z,23.00
2018-06-21T18:14:40.259Z,25.10
2018-06-21T18:16:43.404Z,26.70
2018-06-21T18:18:46.638Z,27.20
2018-06-21T18:20:49.780Z,27.30
2018-06-21T18:22:52.900Z,28.10
2018-06-21T18:24:56.048Z,28.40
2018-06-21T18:26:59.160Z,28.60
2018-06-21T18:29:02.364Z,28.70
2018-06-21T18:31:05.457Z,28.70
2018-06-21T18:33:08.616Z,28.20
2018-06-21T18:35:11.743Z,28.10
2018-06-21T18:37:15.985Z,27.10
2018-06-21T18:39:19.088Z,27.10
2018-06-21T18:41:22.437Z,27.20
2018-06-21T18:43:25.826Z,27.60
2018-06-21T18:45:30.852Z,26.80
2018-06-21T18:47:33.975Z,24.40
2018-06-21T18:49:37.156Z,22.20
2018-06-21T18:51:40.295Z,20.70
2018-06-21T18:53:43.416Z,19.50
2018-06-21T18:55:46.592Z,18.70
2018-06-21T18:57:49.684Z,18.30
2018-06-21T18:59:52.811Z,17.80
2018-06-21T19:01:55.927Z,17.40
2018-06-21T19:03:59.364Z,17.00
2018-06-21T19:06:02.481Z,16.80
2018-06-21T19:08:10.924Z,16.60
2018-06-21T19:10:19.612Z,16.40
2018-06-21T19:12:22.811Z,16.10
2018-06-21T19:16:29.249Z,15.80
2018-06-21T19:18:32.356Z,15.70
2018-06-21T19:20:35.490Z,15.70
2018-06-21T19:22:38.676Z,15.70
2018-06-21T19:24:41.780Z,15.70
2018-06-21T19:26:44.888Z,15.80
2018-06-21T19:28:48.010Z,15.90
2018-06-21T19:30:51.222Z,16.10
2018-06-21T19:32:54.344Z,16.10
2018-06-21T19:34:57.471Z,16.10
2018-06-21T19:37:00.620Z,16.10
2018-06-21T19:39:05.963Z,16.00
2018-06-21T19:41:09.092Z,15.90
2018-06-21T19:43:12.222Z,15.80
2018-06-21T19:45:15.357Z,15.70
2018-06-21T19:47:18.789Z,15.50
2018-06-21T19:49:21.952Z,15.30
2018-06-21T19:51:25.112Z,15.10
2018-06-21T19:53:28.393Z,15.00
2018-06-21T19:55:31.556Z,14.90
2018-06-21T19:57:34.720Z,14.80
2018-06-21T19:59:38.349Z,14.70
2018-06-21T20:01:41.827Z,14.50
2018-06-21T20:05:48.561Z,14.40
2018-06-21T20:07:52.140Z,14.30
2018-06-21T20:09:55.592Z,14.30
2018-06-21T20:12:01.958Z,14.10
2018-06-21T20:14:05.497Z,14.10
2018-06-21T20:16:08.605Z,14.10
2018-06-21T20:18:11.763Z,14.10
2018-06-21T20:20:20.418Z,14.00
2018-06-21T20:22:23.562Z,14.00
2018-06-21T20:24:26.869Z,14.00
2018-06-21T20:26:29.954Z,14.00
2018-06-21T20:28:33.124Z,14.00
2018-06-21T20:30:36.314Z,13.90
2018-06-21T20:32:39.424Z,13.90
2018-06-21T20:34:42.504Z,13.90
2018-06-21T20:36:45.688Z,13.90
2018-06-21T20:38:48.816Z,13.90
2018-06-21T20:40:51.915Z,13.90
2018-06-21T20:42:55.022Z,13.80
2018-06-21T20:44:58.141Z,13.80
2018-06-21T20:47:01.329Z,13.80
2018-06-21T20:49:05.313Z,13.80
2018-06-21T20:51:08.491Z,13.70
2018-06-21T20:53:11.591Z,13.70
2018-06-21T20:55:14.676Z,13.70
2018-06-21T20:57:17.772Z,13.70
2018-06-21T20:59:20.876Z,13.60
2018-06-21T21:01:25.184Z,13.60
2018-06-21T21:03:28.396Z,13.60
2018-06-21T21:05:32.052Z,13.50
2018-06-21T21:07:35.363Z,13.50
2018-06-21T21:09:38.460Z,13.50
2018-06-21T21:11:41.652Z,13.40
2018-06-21T21:13:44.751Z,13.30
2018-06-21T21:15:47.858Z,13.30
2018-06-21T21:17:51.031Z,13.30
2018-06-21T21:19:54.172Z,13.20
2018-06-21T21:21:57.336Z,13.20
2018-06-21T21:24:00.432Z,13.20
2018-06-21T21:26:03.515Z,13.10
2018-06-21T21:28:06.616Z,13.10
2018-06-21T21:30:10.121Z,13.10
2018-06-21T21:32:13.285Z,13.00
2018-06-21T21:34:16.394Z,13.00
2018-06-21T21:36:19.533Z,12.90
2018-06-21T21:38:22.640Z,12.90
2018-06-21T21:40:25.778Z,12.90
2018-06-21T21:42:29.652Z,12.90
2018-06-21T21:44:33.031Z,12.90
2018-06-21T21:46:36.177Z,12.90
2018-06-21T21:48:39.296Z,12.80
2018-06-21T21:50:42.500Z,12.80
2018-06-21T21:52:45.658Z,12.80
2018-06-21T21:54:48.784Z,12.80
2018-06-21T21:56:51.924Z,12.80
2018-06-21T21:58:55.052Z,12.80
2018-06-21T22:00:59.373Z,12.80
2018-06-21T22:03:02.496Z,12.80
2018-06-21T22:05:05.682Z,12.80
2018-06-21T22:07:08.796Z,12.90
2018-06-21T22:09:11.911Z,13.00
2018-06-21T22:11:15.068Z,13.00
2018-06-21T22:13:18.507Z,13.10
2018-06-21T22:15:21.572Z,13.20
2018-06-21T22:17:24.755Z,13.30
2018-06-21T22:19:28.132Z,13.40
2018-06-21T22:21:31.335Z,13.50
2018-06-21T22:23:34.405Z,13.50
2018-06-21T22:25:37.623Z,13.50
2018-06-21T22:27:40.756Z,13.50
2018-06-21T22:29:43.872Z,13.50
2018-06-21T22:31:46.999Z,13.50
2018-06-21T22:33:50.115Z,13.50
2018-06-21T22:35:53.236Z,13.50
2018-06-21T22:37:56.371Z,13.50
2018-06-21T22:39:59.504Z,13.50
2018-06-21T22:42:02.645Z,13.50
2018-06-21T22:44:05.944Z,13.50
2018-06-21T22:46:09.048Z,13.50
2018-06-21T22:48:12.207Z,13.60
2018-06-21T22:50:15.946Z,13.60
2018-06-21T22:52:19.197Z,13.50
2018-06-21T22:54:22.300Z,13.60
2018-06-21T22:56:25.707Z,13.60
2018-06-21T22:58:30.092Z,13.60
2018-06-21T23:00:33.233Z,13.70
2018-06-21T23:02:36.345Z,13.70
2018-06-21T23:04:39.522Z,13.70
2018-06-21T23:06:42.641Z,13.60
2018-06-21T23:08:45.744Z,13.70
2018-06-21T23:10:48.869Z,13.60
2018-06-21T23:12:51.968Z,13.60
2018-06-21T23:14:55.099Z,13.70
2018-06-21T23:16:58.548Z,13.70
2018-06-21T23:19:12.992Z,13.70
2018-06-21T23:21:16.108Z,13.70
2018-06-21T23:23:19.240Z,13.60
2018-06-21T23:25:22.352Z,13.60
2018-06-21T23:29:28.435Z,13.60
2018-06-21T23:31:31.576Z,13.50
2018-06-21T23:33:34.679Z,13.60
2018-06-21T23:35:37.781Z,13.50
2018-06-21T23:37:40.893Z,13.50
2018-06-21T23:39:44.002Z,13.40
2018-06-21T23:41:47.154Z,13.30
2018-06-21T23:43:50.847Z,13.20
2018-06-21T23:45:54.027Z,13.30
2018-06-21T23:47:57.179Z,13.30
2018-06-21T23:50:00.288Z,13.30
2018-06-21T23:52:03.400Z,13.20
2018-06-21T23:54:07.328Z,13.10
2018-06-21T23:56:10.432Z,13.10
2018-06-21T23:58:13.519Z,13.10
